Latest Weather Observations for Portland Harbour

IDV60801

Issued at 5:35 am EST Wednesday 1 October 2014 (issued every 30 minutes, with the page automatically refreshed every 10 minutes)

About weather observations | Map of weather stations | Latest weather observations for VIC | Other Formats
Station Details ID: 090192 Name: PORTLAND NTC AWS Lat: -38.34 Lon: 141.61 Height: 0.0 m
Data from the previous 72 hours. | See also: Recent months for locations in Victoria
Date/Time
EST
Temp
°C
App
Temp
°C
Dew
Point
Rel
Hum
%
Delta-T
°C
Wind Press
QNH
hPa
Press
MSL
hPa
Rain
since 9 am
mm
Dir
 
Spd
km/h
Gust
km/h
Spd
kts
Gust
kts
01/05:30am 10.3 - - - - WSW 26 37 14 20 1021.0 1021.0 -
01/05:00am 10.7 - - - - SW 19 26 10 14 1020.6 1020.6 -
01/04:30am 10.5 - - - - SW 19 28 10 15 1020.2 1020.2 -
01/04:00am 10.4 - - - - SW 20 26 11 14 1020.0 1020.0 -
01/03:30am 10.1 - - - - WSW 26 44 14 24 1019.7 1019.7 -
01/03:00am 10.0 - - - - SW 17 24 9 13 1019.6 1019.6 -
01/02:31am 10.7 - - - - SW 30 70 16 38 1019.5 1019.5 -
01/02:30am 11.0 - - - - SW 28 39 15 21 1019.4 1019.4 -
01/02:00am 10.8 - - - - SW 26 37 14 20 1019.0 1019.0 -
01/01:30am 11.0 - - - - SW 28 43 15 23 1018.8 1018.8 -
01/01:00am 10.6 - - - - SW 24 39 13 21 1018.5 1018.5 -
01/12:37am 10.6 - - - - SW 32 50 17 27 1018.5 1018.5 -
01/12:30am 10.9 - - - - SW 30 46 16 25 1018.1 1018.1 -
01/12:00am 11.0 - - - - SW 35 57 19 31 1017.7 1017.7 -
 
Date/Time
EST
Temp
°C
App
Temp
°C
Dew
Point
Rel
Hum
%
Delta-T
°C
Wind Press
QNH
hPa
Press
MSL
hPa
Rain
since 9 am
mm
Dir
 
Spd
km/h
Gust
km/h
Spd
kts
Gust
kts
30/11:51pm 10.7 - - - - SW 28 46 15 25 1017.5 1017.5 -
30/11:30pm 9.4 - - - - WSW 24 37 13 20 1017.2 1017.2 -
30/11:18pm 9.5 - - - - SW 28 46 15 25 1017.3 1017.3 -
30/11:00pm 11.1 - - - - SW 33 46 18 25 1017.0 1017.0 -
30/10:36pm 10.8 - - - - WSW 32 54 17 29 1016.6 1016.6 -
30/10:30pm 10.6 - - - - WSW 35 48 19 26 1016.7 1016.7 -
30/10:05pm 11.0 - - - - SW 39 59 21 32 1016.2 1016.2 -
30/10:00pm 10.8 - - - - SW 35 50 19 27 1016.0 1016.0 -
30/09:30pm 10.9 - - - - WSW 37 59 20 32 1015.6 1015.6 -
30/09:01pm 11.0 - - - - WSW 30 48 16 26 1014.9 1014.9 -
30/09:00pm 10.9 - - - - WSW 30 44 16 24 1015.0 1015.0 -
30/08:30pm 10.8 - - - - WSW 32 48 17 26 1014.4 1014.4 -
30/08:11pm 8.8 - - - - W 24 32 13 17 1014.1 1014.1 -
30/08:00pm 10.8 - - - - WSW 43 63 23 34 1013.9 1013.9 -
30/07:36pm 11.4 - - - - WSW 35 54 19 29 1013.1 1013.1 -
30/07:30pm 11.6 - - - - WSW 37 54 20 29 1013.0 1013.0 -
30/07:15pm 11.4 - - - - WSW 30 50 16 27 1012.6 1012.6 -
30/07:00pm 11.1 - - - - W 26 41 14 22 1012.4 1012.4 -
30/06:30pm 10.7 - - - - W 26 41 14 22 1012.0 1012.0 -
30/06:00pm 11.3 - - - - WSW 43 63 23 34 1011.7 1011.7 -
30/05:30pm 12.3 - - - - WSW 35 54 19 29 1011.0 1011.0 -
30/05:00pm 12.4 - - - - WSW 41 61 22 33 1010.6 1010.6 -
30/04:30pm 12.2 - - - - W 41 70 22 38 1009.9 1009.9 -
30/04:07pm 12.5 - - - - WSW 37 63 20 34 1009.3 1009.3 -
30/04:00pm 12.4 - - - - WSW 37 54 20 29 1009.2 1009.2 -
30/03:31pm 12.9 - - - - WSW 43 61 23 33 1008.6 1008.6 -
30/03:30pm 13.0 - - - - WSW 41 57 22 31 1008.4 1008.4 -
30/03:07pm 12.6 - - - - WSW 41 65 22 35 1008.3 1008.3 -
30/03:00pm 13.6 - - - - WSW 37 54 20 29 1007.9 1007.9 -
30/02:32pm 13.2 - - - - WSW 39 57 21 31 1007.3 1007.3 -
30/02:30pm 13.2 - - - - WSW 41 57 22 31 1007.4 1007.4 -
30/02:02pm 13.3 - - - - WSW 39 63 21 34 1007.2 1007.2 -
30/02:00pm 13.1 - - - - W 39 57 21 31 1007.2 1007.2 -
30/01:35pm 12.6 - - - - W 33 54 18 29 1006.4 1006.4 -
30/01:30pm 12.3 - - - - W 35 54 19 29 1006.2 1006.2 -
30/01:00pm 10.9 - - - - WSW 39 67 21 36 1006.7 1006.7 -
30/12:50pm 11.0 - - - - WSW 41 59 22 32 1006.7 1006.7 -
30/12:46pm 10.9 - - - - WSW 35 48 19 26 1006.5 1006.5 -
30/12:30pm 10.5 - - - - WSW 57 76 31 41 1005.2 1005.2 -
30/12:29pm 10.5 - - - - W 57 76 31 41 1004.7 1004.7 -
30/12:22pm 11.4 - - - - W 37 63 20 34 1004.6 1004.6 -
30/12:15pm 11.1 - - - - W 35 48 19 26 1004.8 1004.8 -
30/12:09pm 11.3 - - - - WSW 61 82 33 44 1004.6 1004.6 -
30/12:00pm 14.4 - - - - W 35 61 19 33 1003.5 1003.5 -
30/11:31am 12.4 - - - - W 32 50 17 27 1004.1 1004.1 -
30/11:30am 12.4 - - - - W 33 50 18 27 1004.1 1004.1 -
30/11:14am 12.8 - - - - WSW 43 63 23 34 1004.1 1004.1 -
30/11:13am 13.1 - - - - WSW 37 52 20 28 1004.1 1004.1 -
30/11:00am 14.3 - - - - NW 28 48 15 26 1003.8 1003.8 -
30/10:34am 12.8 - - - - WNW 30 48 16 26 1004.2 1004.2 -
30/10:30am 12.7 - - - - WNW 33 48 18 26 1004.2 1004.2 -
30/10:04am 14.2 - - - - W 28 54 15 29 1004.5 1004.5 -
30/10:00am 13.9 - - - - W 24 33 13 18 1004.6 1004.6 -
30/09:30am 16.2 - - - - NW 35 56 19 30 1004.1 1004.1 -
30/09:00am 16.3 - - - - NW 35 61 19 33 1004.2 1004.2 -
30/08:31am 15.9 - - - - NW 33 56 18 30 1004.7 1004.7 -
30/08:30am 15.9 - - - - NW 32 50 17 27 1004.8 1004.8 -
30/08:06am 15.6 - - - - NW 32 52 17 28 1004.8 1004.8 -
30/08:00am 15.6 - - - - NNW 33 50 18 27 1004.8 1004.8 -
30/07:53am 15.6 - - - - NNW 30 50 16 27 1004.8 1004.8 -
30/07:30am 15.0 - - - - NNW 26 39 14 21 1005.0 1005.0 -
30/07:00am 14.3 - - - - NNW 24 33 13 18 1005.5 1005.5 -
30/06:30am 14.0 - - - - NNW 24 37 13 20 1005.6 1005.6 -
30/06:00am 13.9 - - - - NNW 24 32 13 17 1005.6 1005.6 -
30/05:30am 14.2 - - - - NNW 28 39 15 21 1005.6 1005.6 -
30/05:02am 14.1 - - - - NNW 28 46 15 25 1005.9 1005.9 -
30/05:00am 13.9 - - - - NNW 26 46 14 25 1006.1 1006.1 -
30/04:45am 14.2 - - - - NNW 32 52 17 28 1006.2 1006.2 -
30/04:30am 13.9 - - - - NNW 26 37 14 20 1006.0 1006.0 -
30/04:00am 13.5 - - - - NNW 24 33 13 18 1006.7 1006.7 -
30/03:30am 12.8 - - - - NNW 20 26 11 14 1006.9 1006.9 -
30/03:00am 12.4 - - - - NNW 20 26 11 14 1007.4 1007.4 -
30/02:30am 12.2 - - - - NNW 20 24 11 13 1007.9 1007.9 -
30/02:00am 11.7 - - - - N 22 26 12 14 1008.2 1008.2 -
30/01:30am 11.8 - - - - NNW 19 22 10 12 1008.7 1008.7 -
30/01:00am 12.0 - - - - N 19 20 10 11 1009.0 1009.0 -
30/12:30am 11.9 - - - - NNW 19 22 10 12 1009.5 1009.5 -
30/12:00am 12.1 - - - - NNW 17 20 9 11 1009.7 1009.7 -
 
Date/Time
EST
Temp
°C
App
Temp
°C
Dew
Point
Rel
Hum
%
Delta-T
°C
Wind Press
QNH
hPa
Press
MSL
hPa
Rain
since 9 am
mm
Dir
 
Spd
km/h
Gust
km/h
Spd
kts
Gust
kts
29/11:30pm 12.3 - - - - NNW 15 19 8 10 1010.1 1010.1 -
29/11:00pm 12.7 - - - - NNW 9 15 5 8 1010.4 1010.4 -
29/10:30pm 13.1 - - - - NNW 15 20 8 11 1010.7 1010.7 -
29/10:00pm 13.4 - - - - NW 11 19 6 10 1010.9 1010.9 -
29/09:30pm 13.8 - - - - WNW 15 26 8 14 1011.2 1011.2 -
29/09:00pm 14.0 - - - - WNW 17 26 9 14 1011.3 1011.3 -
29/08:30pm 14.0 - - - - WNW 15 22 8 12 1011.3 1011.3 -
29/08:00pm 14.1 - - - - W 13 26 7 14 1011.3 1011.3 -
29/07:30pm 14.3 - - - - WNW 13 20 7 11 1010.9 1010.9 -
29/07:00pm 14.7 - - - - W 20 30 11 16 1010.5 1010.5 -
29/06:30pm 14.9 - - - - W 22 33 12 18 1010.0 1010.0 -
29/06:00pm 15.1 - - - - W 24 39 13 21 1009.8 1009.8 -
29/05:30pm 15.7 - - - - W 30 43 16 23 1009.6 1009.6 -
29/05:00pm 15.7 - - - - W 32 44 17 24 1009.4 1009.4 -
29/04:30pm 16.3 - - - - W 30 50 16 27 1009.4 1009.4 -
29/04:20pm 16.3 - - - - W 33 52 18 28 1009.4 1009.4 -
29/04:00pm 16.4 - - - - W 32 43 17 23 1009.5 1009.5 -
29/03:30pm 16.4 - - - - W 32 44 17 24 1009.8 1009.8 -
29/03:00pm 16.4 - - - - W 30 44 16 24 1010.0 1010.0 -
29/02:30pm 17.4 - - - - W 26 35 14 19 1010.2 1010.2 -
29/02:00pm 16.8 - - - - W 28 39 15 21 1010.3 1010.3 -
29/01:30pm 17.1 - - - - W 26 39 14 21 1010.7 1010.7 -
29/01:00pm 16.6 - - - - W 26 37 14 20 1010.9 1010.9 -
29/12:30pm 16.4 - - - - W 24 37 13 20 1011.0 1011.0 -
29/12:00pm 16.2 - - - - WNW 22 33 12 18 1011.1 1011.1 -
29/11:30am 15.6 - - - - WNW 28 37 15 20 1011.4 1011.4 -
29/11:00am 15.4 - - - - W 30 43 16 23 1011.6 1011.6 -
29/10:30am 15.2 - - - - WNW 26 41 14 22 1011.8 1011.8 -
29/10:00am 14.6 - - - - WNW 28 41 15 22 1012.0 1012.0 -
29/09:30am 14.7 - - - - WNW 28 43 15 23 1012.1 1012.1 -
29/09:00am 14.6 - - - - WNW 24 41 13 22 1012.0 1012.0 -
29/08:30am 13.8 - - - - WNW 20 26 11 14 1011.8 1011.8 -
29/08:00am 12.8 - - - - NNW 15 22 8 12 1011.8 1011.8 -
29/07:30am 12.2 - - - - NNW 20 28 11 15 1011.6 1011.6 -
29/07:00am 12.1 - - - - N 20 24 11 13 1011.4 1011.4 -
29/06:30am 12.8 - - - - NNW 9 19 5 10 1010.9 1010.9 -
29/06:00am 13.0 - - - - WNW 9 13 5 7 1010.5 1010.5 -
29/05:30am 13.3 - - - - W 19 30 10 16 1010.2 1010.2 -
29/05:00am 13.3 - - - - W 19 28 10 15 1009.9 1009.9 -
29/04:30am 13.4 - - - - W 20 30 11 16 1009.6 1009.6 -
29/04:00am 13.5 - - - - W 13 19 7 10 1009.3 1009.3 -
29/03:30am 13.9 - - - - W 20 32 11 17 1008.9 1008.9 -
29/03:00am 13.8 - - - - W 20 33 11 18 1008.7 1008.7 -
29/02:30am 13.7 - - - - W 22 35 12 19 1008.2 1008.2 -
29/02:00am 13.7 - - - - W 24 37 13 20 1008.2 1008.2 -
29/01:31am 13.5 - - - - W 30 50 16 27 1008.5 1008.5 -
29/01:30am 13.6 - - - - W 32 50 17 27 1008.5 1008.5 -
29/01:00am 14.3 - - - - W 32 48 17 26 1008.0 1008.0 -
29/12:38am 14.3 - - - - WNW 32 56 17 30 1007.7 1007.7 -
29/12:30am 14.1 - - - - WNW 32 48 17 26 1007.5 1007.5 -
29/12:00am 14.5 - - - - WNW 28 41 15 22 1007.4 1007.4 -
 
Date/Time
EST
Temp
°C
App
Temp
°C
Dew
Point
Rel
Hum
%
Delta-T
°C
Wind Press
QNH
hPa
Press
MSL
hPa
Rain
since 9 am
mm
Dir
 
Spd
km/h
Gust
km/h
Spd
kts
Gust
kts
28/11:30pm 14.2 - - - - WNW 28 39 15 21 1007.2 1007.2 -
28/11:00pm 13.6 - - - - NW 20 32 11 17 1007.2 1007.2 -
28/10:30pm 13.7 - - - - NW 24 37 13 20 1007.0 1007.0 -
28/10:00pm 13.8 - - - - NW 20 32 11 17 1006.9 1006.9 -
28/09:30pm 13.9 - - - - NW 20 30 11 16 1006.7 1006.7 -
28/09:00pm 13.9 - - - - NW 15 22 8 12 1006.5 1006.5 -
28/08:30pm 14.2 - - - - NW 17 24 9 13 1006.1 1006.1 -
28/08:00pm 14.4 - - - - WNW 20 28 11 15 1005.8 1005.8 -
28/07:30pm 14.4 - - - - WNW 17 24 9 13 1005.4 1005.4 -
28/07:00pm 14.5 - - - - WNW 17 26 9 14 1005.2 1005.2 -
28/06:30pm 14.8 - - - - W 20 32 11 17 1004.7 1004.7 -
28/06:00pm 15.5 - - - - W 24 37 13 20 1004.3 1004.3 -
28/05:30pm 15.9 - - - - W 33 54 18 29 1004.1 1004.1 -
28/05:01pm 16.7 - - - - WSW 32 52 17 28 1003.7 1003.7 -
28/05:00pm 16.6 - - - - WSW 33 52 18 28 1003.7 1003.7 -
28/04:47pm 16.9 - - - - W 28 52 15 28 1003.5 1003.5 -
28/04:30pm 16.6 - - - - WSW 37 54 20 29 1003.3 1003.3 -
28/04:00pm 17.8 - - - - W 41 72 22 39 1002.6 1002.6 -
28/03:33pm 22.5 - - - - W 32 57 17 31 1001.5 1001.5 -
28/03:30pm 23.5 - - - - W 28 39 15 21 1001.6 1001.6 -
28/03:00pm 24.3 - - - - WNW 48 76 26 41 1001.3 1001.3 -
28/02:30pm 25.2 - - - - NW 46 72 25 39 1000.7 1000.7 -
28/02:00pm 25.3 - - - - NW 41 59 22 32 1000.6 1000.6 -
28/01:30pm 25.2 - - - - NW 35 57 19 31 1001.3 1001.3 -
28/01:00pm 25.1 - - - - NNW 37 57 20 31 1001.8 1001.8 -
28/12:30pm 25.0 - - - - NNW 37 56 20 30 1002.4 1002.4 -
28/12:00pm 25.1 - - - - NW 46 76 25 41 1003.0 1003.0 -
28/11:41am 25.8 - - - - NW 46 82 25 44 1003.0 1003.0 -
28/11:30am 25.8 - - - - NW 37 59 20 32 1002.9 1002.9 -
28/11:01am 25.4 - - - - NNW 46 67 25 36 1003.1 1003.1 -
28/11:00am 25.2 - - - - NNW 48 67 26 36 1002.9 1002.9 -
28/10:30am 24.7 - - - - NNW 52 72 28 39 1003.0 1003.0 -
28/10:00am 24.9 - - - - NNW 48 70 26 38 1003.5 1003.5 -
28/09:30am 24.4 - - - - NNW 46 70 25 38 1003.8 1003.8 -
28/09:21am 24.4 - - - - NNW 57 78 31 42 1003.3 1003.3 -
28/09:20am 24.4 - - - - NNW 61 78 33 42 1003.3 1003.3 -
28/09:09am 24.5 - - - - NNW 37 59 20 32 1004.3 1004.3 -
28/09:00am 24.3 - - - - WNW 35 56 19 30 1005.1 1005.1 -
28/08:56am 23.8 - - - - WNW 35 56 19 30 1005.0 1005.0 -
28/08:55am 23.6 - - - - WNW 35 50 19 27 1004.7 1004.7 -
28/08:53am 23.4 - - - - NNW 44 63 24 34 1004.1 1004.1 -
28/08:30am 21.2 - - - - N 48 65 26 35 1002.5 1002.5 -
28/08:00am 20.4 - - - - N 50 65 27 35 1002.7 1002.7 -
28/07:30am 20.0 - - - - N 46 56 25 30 1003.0 1003.0 -
28/07:00am 19.8 - - - - N 48 61 26 33 1003.2 1003.2 -
28/06:30am 19.5 - - - - N 39 50 21 27 1004.2 1004.2 -
28/06:00am 19.8 - - - - N 30 37 16 20 1004.7 1004.7 -

Other Formats:

Comma delimited format used in spreadsheet applications
http://www.bom.gov.au/fwo/IDV60801/IDV60801.95826.axf

JavaScript Object Notation format (JSON) in row-major order
http://www.bom.gov.au/fwo/IDV60801/IDV60801.95826.json